Impacts METAR Board INFO
IDs:

KPHL - Philadelphia Intl, PA, US

Updated at: 0213 UTC 22 Jan 2018
Potential Impact None Slight Moderate High
Time21/14Z 21/15Z 21/16Z 21/17Z 21/18Z 21/19Z 21/20Z 21/21Z 21/22Z 21/23Z 22/00Z 22/01Z 22/02Z
VIS10 10 10 10 10 10 10 10 10 10 10 10 10
CIG31 33 36 38 30 34 35 200 40 -- -- 44 49
CoverBKNOVCOVCBKNOVCOVCOVCBKNBKNSCTSCTBKNOVC
FltCatVFRVFRVFRVFRMVFRVFRVFRVFRVFRVFRVFRVFRVFR
WX--------------------------
WDir2202502003203102602302002102101601800
WSpd5 4 4 3 3 4 6 3 5 4 4 3 0
WGst-- -- -- -- -- -- -- -- -- -- -- -- --
Raw hourly METARs
KPHL 211354Z 22005KT 10SM BKN031 BKN250 03/M01 A3021 RMK AO2 SLP230 T00331006 $
KPHL 211454Z 25004KT 10SM BKN033 OVC250 06/01 A3022 RMK AO2 SLP233 T00560006 51014 $
KPHL 211554Z 20004KT 10SM OVC036 08/01 A3023 RMK AO2 SLP237 T00780006 $
KPHL 211654Z 32003KT 10SM SCT030 BKN038 BKN065 11/02 A3019 RMK AO2 SLP224 T01060017 $
KPHL 211754Z 31003KT 10SM BKN030 OVC038 11/02 A3017 RMK AO2 SLP216 T01110022 10111 21011 58017
KPHL 211854Z 26004KT 10SM SCT027 BKN034 OVC043 11/03 A3016 RMK AO2 SLP213 T01110028
KPHL 211954Z 23006KT 10SM SCT030 BKN035 OVC075 11/03 A3016 RMK AO2 SLP213 T01110028
KPHL 212054Z 20003KT 10SM SCT040 SCT075 BKN200 11/03 A3015 RMK AO2 SLP209 T01110028 58006
KPHL 212154Z 21005KT 10SM BKN040 BKN075 BKN200 11/03 A3017 RMK AO2 SLP215 T01060028
KPHL 212254Z 21004KT 10SM FEW040 FEW080 SCT200 08/02 A3017 RMK AO2 SLP217 T00830017
KPHL 212354Z 16004KT 10SM FEW040 FEW080 SCT200 08/02 A3018 RMK AO2 SLP219 T00780022 10117 20061 51010
KPHL 220054Z 18003KT 10SM BKN044 BKN080 08/02 A3019 RMK AO2 SLP224 T00780022
KPHL 220154Z 00000KT 10SM BKN049 OVC080 07/02 A3018 RMK AO2 SLP221 T00720022